METAR Data
IDs: Format: Raw Decoded Include TAF

Data at: 1806 UTC 21 Sep 2018

KFWS 211748Z 15010G16KT 10SM SCT026 BKN042 BKN075 29/23 A2997
KFWS 211647Z 15008KT 10SM BKN017 BKN022 OVC075 28/23 A2999
KFWS 211546Z 15007KT 7SM BKN015 OVC065 27/23 A2998
KFWS 211448Z 16008G15KT 7SM BKN017 OVC110 27/24 A2997
KFWS 211353Z 15009KT 7SM BKN011 BKN080 OVC110 26/23 A2996
KFWS 211250Z 16007KT 7SM BKN014 25/23 A2995
KFWS 211156Z 16007KT 7SM BKN010 OVC030 25/23 A2995
KFWS 211115Z AUTO 18007KT 7SM SCT011 BKN016 OVC110 25/23 A2995 RMK AO2 T02480230
KFWS 211055Z AUTO 18008G14KT 7SM RA BKN014 OVC018 25/23 A2995 RMK AO2 T02480229
KFWS 211035Z AUTO 17007KT 7SM OVC014 25/23 A2995 RMK AO2 T02480230
KFWS 211015Z AUTO 17006KT 7SM OVC012 25/23 A2995 RMK AO2 T02480230
KFWS 210955Z AUTO 18006KT 7SM OVC012 25/23 A2995 RMK AO2 T02480230
KFWS 210935Z AUTO 17005KT 7SM OVC010 25/23 A2995 RMK AO2 T02480228
KFWS 210915Z AUTO 16007KT 7SM OVC012 25/23 A2995 RMK AO2 T02470226
KFWS 210855Z AUTO 17006KT 7SM BKN012 OVC023 24/22 A2995 RMK AO2 T02430221
KFWS 210835Z AUTO 16004KT 10SM OVC012 24/22 A2995 RMK AO2 T02420220
KFWS 210815Z AUTO 15004KT 10SM BKN014 BKN031 OVC090 24/22 A2995 RMK AO2 T02400216
KFWS 210755Z AUTO 16008KT 10SM SCT016 SCT031 BKN090 24/22 A2994 RMK AO2 T02400215
KFWS 210735Z AUTO 16007KT 10SM SCT075 24/21 A2994 RMK AO2 T02380212
KFWS 210715Z AUTO 16009KT 10SM BKN065 OVC075 24/21 A2994 RMK AO2 T02390211
KFWS 210655Z AUTO 17008G14KT 10SM BKN055 OVC075 24/21 A2995 RMK AO2 T02380210
KFWS 210635Z AUTO 17007G14KT 10SM OVC060 24/21 A2995 RMK AO2 T02380210
KFWS 210615Z AUTO 16008KT 10SM BKN060 BKN070 OVC085 24/21 A2995 RMK AO2 T02380211
KFWS 210555Z AUTO 17009KT 10SM SCT065 BKN070 OVC085 24/21 A2996 RMK AO2 T02370211 10248 20228 403330225
KFWS 210535Z AUTO 16006KT 10SM OVC065 23/21 A2996 RMK AO2 T02340208
KFWS 210515Z AUTO 17004KT 10SM OVC065 23/21 A2997 RMK AO2 T02330207
KFWS 210455Z AUTO 17005KT 10SM OVC065 23/21 A2997 RMK AO2 T02300205
KFWS 210435Z AUTO 16003KT 10SM BKN055 BKN085 BKN120 23/20 A2997 RMK AO2 T02300204
KFWS 210415Z AUTO 17005KT 10SM CLR 23/20 A2997 RMK AO2 T02300203
KFWS 210355Z AUTO 18008KT 10SM -RA SCT050 SCT060 23/20 A2997 RMK AO2 T02300200
KFWS 210335Z AUTO 18010KT 10SM SCT120 23/20 A2997 RMK AO2 T02320200
KFWS 210315Z AUTO 17008KT 10SM SCT120 23/20 A2997 RMK AO2 T02330200
KFWS 210255Z AUTO 18008G16KT 10SM SCT110 24/21 A2997 RMK AO2 T02380207
KFWS 210235Z AUTO 18010G19KT 10SM SCT014 SCT024 OVC110 24/21 A2997 RMK AO2 T02400211
KFWS 210215Z AUTO 19006KT 10SM SCT029 SCT039 BKN110 24/22 A2996 RMK AO2 T02390215
KFWS 210155Z AUTO 13004KT 10SM BKN100 BKN120 24/22 A2995 RMK AO2 T02400223
KFWS 210135Z AUTO 12003KT 10SM SCT100 24/23 A2995 RMK AO2 T02410226
KFWS 210115Z AUTO 13003KT 10SM CLR 24/22 A2994 RMK AO2 T02430224
KFWS 210055Z AUTO 00000KT 10SM CLR 24/22 A2993 RMK AO2 T02430222
KFWS 210035Z AUTO 18005KT 10SM CLR 24/22 A2992 RMK AO2 LTG DSNT NE T02440222
KFWS 210015Z AUTO 17004KT 10SM CLR 25/23 A2991 RMK AO2 T02480230
KFWS 202355Z 14005KT 7SM BKN050 25/23 A2991
KFWS 202325Z 16004KT 10SM BKN050 25/23 A2992 RMK TSE24
KFWS 202252Z 21008KT 7SM -TSRA SCT038 BKN050 25/22 A2991
KFWS 202203Z 19013G26KT 5SM TSRA SCT041 BKN050 28/20 A2992 RMK LTG DSNT S AND W
KFWS 202146Z 12006KT 10SM SCT043 BKN050 31/20 A2990 RMK LTG DSNT S AND W
KFWS 202049Z 13011KT 10SM SCT041 32/21 A2990
KFWS 201949Z 16008G16KT 10SM SCT040 BKN046 32/22 A2993
KFWS 201848Z 13007KT 10SM BKN038 32/22 A2995
KFWS 201750Z 16008KT 10SM BKN034 31/22 A2997
KFWS 201647Z 19009KT 10SM SCT026 31/22 A3000
KFWS 201546Z 18008KT 10SM FEW020 29/22 A2999
KFWS 201447Z 18006KT 10SM SKC 28/22 A2998
KFWS 201350Z 14003KT 10SM FEW070 25/22 A2997
KFWS 201255Z 16004KT 10SM SKC 24/22 A2996
KFWS 201154Z 00000KT 10SM SKC 23/21 A2995
KFWS 201115Z AUTO 15003KT 10SM CLR 23/21 A2995 RMK AO2 T02330206
KFWS 201055Z AUTO 18003KT 10SM CLR 24/21 A2994 RMK AO2 T02380208
KFWS 201035Z AUTO 18005KT 10SM CLR 24/21 A2994 RMK AO2 T02400208
KFWS 201015Z AUTO 19006KT 10SM CLR 24/21 A2994 RMK AO2 T02410209
KFWS 200955Z AUTO 19005KT 10SM CLR 24/21 A2994 RMK AO2 T02430209
KFWS 200935Z AUTO 19004KT 10SM CLR 24/21 A2993 RMK AO2 T02380205
KFWS 200915Z AUTO 16005KT 10SM CLR 24/21 A2994 RMK AO2 T02380206
KFWS 200855Z AUTO 19005KT 10SM CLR 24/21 A2994 RMK AO2 T02410206
KFWS 200835Z AUTO 18005KT 10SM CLR 24/20 A2994 RMK AO2 T02390203
KFWS 200815Z AUTO 18003KT 10SM CLR 24/20 A2995 RMK AO2 T02380203
KFWS 200755Z AUTO 13003KT 10SM CLR 24/20 A2995 RMK AO2 T02370202
KFWS 200735Z AUTO 19004KT 10SM CLR 24/20 A2995 RMK AO2 T02430202
KFWS 200715Z AUTO 00000KT 10SM CLR 24/21 A2995 RMK AO2 T02420205
KFWS 200655Z AUTO 17003KT 10SM CLR 25/20 A2995 RMK AO2 T02480203
KFWS 200635Z AUTO 18003KT 10SM CLR 25/21 A2996 RMK AO2 T02480205
KFWS 200615Z AUTO 00000KT 10SM CLR 25/20 A2996 RMK AO2 T02480202